createdAt,value
2018-05-06T00:00:11.340Z,0
2018-05-06T00:01:11.570Z,0
2018-05-06T00:02:11.573Z,0
2018-05-06T00:03:11.555Z,0
2018-05-06T00:04:11.565Z,0
2018-05-06T00:05:11.293Z,0
2018-05-06T00:06:11.546Z,0
2018-05-06T00:07:11.273Z,0
2018-05-06T00:08:11.258Z,0
2018-05-06T00:09:11.506Z,0
2018-05-06T00:10:11.009Z,0
2018-05-06T00:11:11.243Z,0
2018-05-06T00:12:11.485Z,0
2018-05-06T00:13:11.227Z,0
2018-05-06T00:14:11.216Z,0
2018-05-06T00:15:11.409Z,0
2018-05-06T00:16:10.689Z,0
2018-05-06T00:17:11.188Z,0
2018-05-06T00:18:11.454Z,0
2018-05-06T00:19:11.508Z,0
2018-05-06T00:20:11.433Z,0
2018-05-06T00:21:11.165Z,0
2018-05-06T00:22:11.155Z,0
2018-05-06T00:23:11.144Z,0
2018-05-06T00:24:10.894Z,0
2018-05-06T00:25:11.147Z,0
2018-05-06T00:26:11.408Z,0
2018-05-06T00:27:11.374Z,0
2018-05-06T00:28:10.847Z,0
2018-05-06T00:29:11.350Z,0
2018-05-06T00:30:11.097Z,0
2018-05-06T00:31:10.826Z,0
2018-05-06T00:32:11.083Z,0
2018-05-06T00:33:11.318Z,0
2018-05-06T00:34:10.549Z,0
2018-05-06T00:35:11.307Z,0
2018-05-06T00:36:11.306Z,0
2018-05-06T00:37:10.786Z,0
2018-05-06T00:38:11.026Z,0
2018-05-06T00:39:11.013Z,0
2018-05-06T00:40:11.269Z,0
2018-05-06T00:41:11.006Z,0
2018-05-06T00:42:10.989Z,0
2018-05-06T00:43:10.991Z,0
2018-05-06T00:44:10.719Z,0
2018-05-06T00:45:10.466Z,0
2018-05-06T00:46:10.953Z,0
2018-05-06T00:47:10.698Z,0
2018-05-06T00:48:11.197Z,0
2018-05-06T00:49:10.943Z,0
2018-05-06T00:50:10.931Z,0
2018-05-06T00:51:10.928Z,0
2018-05-06T00:52:10.908Z,0
2018-05-06T00:53:11.235Z,0
2018-05-06T00:54:11.143Z,0
2018-05-06T00:55:11.158Z,0
2018-05-06T00:56:10.877Z,0
2018-05-06T00:57:10.360Z,0
2018-05-06T00:58:10.618Z,0
2018-05-06T00:59:11.102Z,0
2018-05-06T01:00:10.589Z,0
2018-05-06T01:01:11.102Z,0
2018-05-06T01:02:11.089Z,0
2018-05-06T01:03:11.081Z,0
2018-05-06T01:04:10.880Z,0
2018-05-06T01:05:10.801Z,0
2018-05-06T01:06:10.793Z,0
2018-05-06T01:07:11.038Z,0
2018-05-06T01:08:11.060Z,0
2018-05-06T01:09:10.511Z,0
2018-05-06T01:10:10.774Z,0
2018-05-06T01:11:10.857Z,0
2018-05-06T01:12:10.486Z,0
2018-05-06T01:13:10.761Z,0
2018-05-06T01:14:10.972Z,0
2018-05-06T01:15:10.482Z,0
2018-05-06T01:16:10.457Z,0
2018-05-06T01:17:10.811Z,0
2018-05-06T01:18:10.944Z,0
2018-05-06T01:19:10.959Z,0
2018-05-06T01:20:10.700Z,0
2018-05-06T01:21:10.676Z,0
2018-05-06T01:22:10.915Z,0
2018-05-06T01:23:10.403Z,0
2018-05-06T01:24:10.679Z,0
2018-05-06T01:25:10.397Z,0
2018-05-06T01:26:10.630Z,0
2018-05-06T01:27:10.873Z,0
2018-05-06T01:28:10.358Z,0
2018-05-06T01:29:10.604Z,0
2018-05-06T01:30:10.633Z,0
2018-05-06T01:31:10.580Z,0
2018-05-06T01:32:10.833Z,0
2018-05-06T01:33:10.565Z,0
2018-05-06T01:34:10.814Z,0
2018-05-06T01:35:10.547Z,0
2018-05-06T01:36:10.298Z,0
2018-05-06T01:37:10.290Z,0
2018-05-06T01:38:10.525Z,0
2018-05-06T01:39:10.611Z,0
2018-05-06T01:40:10.774Z,0
2018-05-06T01:41:10.778Z,0
2018-05-06T01:42:10.490Z,0
2018-05-06T01:43:10.494Z,0
2018-05-06T01:44:10.732Z,0
2018-05-06T01:45:10.740Z,0
2018-05-06T01:46:10.458Z,0
2018-05-06T01:47:10.446Z,0
2018-05-06T01:48:09.941Z,0
2018-05-06T01:49:10.686Z,0
2018-05-06T01:50:10.677Z,0
2018-05-06T01:51:10.669Z,0
2018-05-06T01:52:10.171Z,0
2018-05-06T01:53:10.408Z,0
2018-05-06T01:54:10.396Z,0
2018-05-06T01:55:10.385Z,0
2018-05-06T01:56:10.374Z,0
2018-05-06T01:57:10.624Z,0
2018-05-06T01:58:10.620Z,0
2018-05-06T01:59:10.092Z,0
2018-05-06T02:00:10.359Z,0
2018-05-06T02:01:10.335Z,0
2018-05-06T02:02:10.318Z,0
2018-05-06T02:03:10.056Z,0
2018-05-06T02:04:10.555Z,0
2018-05-06T02:05:10.547Z,0
2018-05-06T02:06:10.040Z,0
2018-05-06T02:07:10.539Z,0
2018-05-06T02:08:10.286Z,0
2018-05-06T02:09:10.508Z,0
2018-05-06T02:10:10.519Z,0
2018-05-06T02:11:10.507Z,0
2018-05-06T02:12:10.565Z,0
2018-05-06T02:13:10.483Z,0
2018-05-06T02:14:10.218Z,0
2018-05-06T02:15:10.529Z,0
2018-05-06T02:16:10.201Z,0
2018-05-06T02:17:10.192Z,0
2018-05-06T02:18:10.194Z,0
2018-05-06T02:19:09.925Z,0
2018-05-06T02:20:09.913Z,0
2018-05-06T02:21:10.172Z,0
2018-05-06T02:22:09.895Z,0
2018-05-06T02:23:09.629Z,0
2018-05-06T02:24:10.390Z,0
2018-05-06T02:25:10.375Z,0
2018-05-06T02:26:10.111Z,0
2018-05-06T02:27:09.851Z,0
2018-05-06T02:28:10.099Z,0
2018-05-06T02:29:09.833Z,0
2018-05-06T02:30:10.364Z,0
2018-05-06T02:31:10.330Z,0
2018-05-06T02:32:10.345Z,0
2018-05-06T02:33:10.303Z,0
2018-05-06T02:34:10.060Z,0
2018-05-06T02:35:10.051Z,0
2018-05-06T02:36:10.029Z,0
2018-05-06T02:37:10.278Z,0
2018-05-06T02:38:10.010Z,0
2018-05-06T02:39:10.269Z,0
2018-05-06T02:40:09.998Z,0
2018-05-06T02:41:10.241Z,0
2018-05-06T02:42:09.487Z,0
2018-05-06T02:43:09.978Z,0
2018-05-06T02:44:09.705Z,0
2018-05-06T02:45:09.696Z,0
2018-05-06T02:46:09.704Z,0
2018-05-06T02:47:10.191Z,0
2018-05-06T02:48:09.929Z,0
2018-05-06T02:49:09.921Z,0
2018-05-06T02:50:09.684Z,0
2018-05-06T02:51:09.391Z,0
2018-05-06T02:52:10.153Z,0
2018-05-06T02:53:09.910Z,0
2018-05-06T02:54:09.869Z,0
2018-05-06T02:55:09.859Z,0
2018-05-06T02:56:10.096Z,0
2018-05-06T02:57:09.335Z,0
2018-05-06T02:58:09.842Z,0
2018-05-06T02:59:09.828Z,0
2018-05-06T03:00:09.822Z,0
2018-05-06T03:01:09.554Z,0
2018-05-06T03:02:10.052Z,0
2018-05-06T03:03:09.782Z,0
2018-05-06T03:04:09.773Z,0
2018-05-06T03:05:09.521Z,0
2018-05-06T03:06:10.013Z,0
2018-05-06T03:07:10.016Z,0
2018-05-06T03:08:09.740Z,0
2018-05-06T03:09:09.731Z,0
2018-05-06T03:10:09.728Z,0
2018-05-06T03:11:09.980Z,0
2018-05-06T03:12:09.711Z,0
2018-05-06T03:13:09.447Z,5
2018-05-06T03:14:09.945Z,5
2018-05-06T03:15:09.942Z,5
2018-05-06T03:16:10.011Z,5
2018-05-06T03:17:09.913Z,5
2018-05-06T03:18:09.661Z,5
2018-05-06T03:19:09.653Z,5
2018-05-06T03:20:09.388Z,5
2018-05-06T03:21:09.892Z,10
2018-05-06T03:22:09.874Z,10
2018-05-06T03:23:09.625Z,10
2018-05-06T03:24:09.597Z,10
2018-05-06T03:25:09.082Z,10
2018-05-06T03:26:09.839Z,15
2018-05-06T03:27:09.827Z,15
2018-05-06T03:28:09.566Z,15
2018-05-06T03:29:09.305Z,15
2018-05-06T03:30:09.318Z,20
2018-05-06T03:31:09.315Z,20
2018-05-06T03:32:09.778Z,20
2018-05-06T03:33:09.774Z,25
2018-05-06T03:34:09.506Z,25
2018-05-06T03:35:09.774Z,25
2018-05-06T03:36:09.746Z,25
2018-05-06T03:37:09.233Z,30
2018-05-06T03:38:09.480Z,30
2018-05-06T03:39:09.465Z,30
2018-05-06T03:40:09.717Z,35
2018-05-06T03:41:09.450Z,35
2018-05-06T03:42:09.690Z,35
2018-05-06T03:43:09.428Z,40
2018-05-06T03:44:09.678Z,40
2018-05-06T03:45:09.744Z,45
2018-05-06T03:46:09.422Z,45
2018-05-06T03:47:09.642Z,45
2018-05-06T03:48:09.644Z,50
2018-05-06T03:49:09.387Z,50
2018-05-06T03:50:09.378Z,50
2018-05-06T03:51:09.111Z,55
2018-05-06T03:52:09.352Z,55
2018-05-06T03:53:09.091Z,60
2018-05-06T03:54:09.586Z,60
2018-05-06T03:55:09.323Z,60
2018-05-06T03:56:09.568Z,65
2018-05-06T03:57:09.299Z,65
2018-05-06T03:58:09.552Z,70
2018-05-06T03:59:09.037Z,75
2018-05-06T04:00:09.543Z,95
2018-05-06T04:01:09.031Z,110
2018-05-06T04:02:09.010Z,115
2018-05-06T04:03:09.509Z,120
2018-05-06T04:04:08.733Z,125
2018-05-06T04:05:09.239Z,130
2018-05-06T04:06:09.222Z,140
2018-05-06T04:07:09.466Z,140
2018-05-06T04:08:09.509Z,145
2018-05-06T04:09:09.207Z,150
2018-05-06T04:10:09.460Z,155
2018-05-06T04:11:09.259Z,160
2018-05-06T04:12:08.923Z,165
2018-05-06T04:13:09.165Z,170
2018-05-06T04:14:09.415Z,175
2018-05-06T04:15:09.521Z,180
2018-05-06T04:16:09.400Z,185
2018-05-06T04:17:09.145Z,190
2018-05-06T04:18:09.380Z,195
2018-05-06T04:19:09.403Z,200
2018-05-06T04:20:09.387Z,210
2018-05-06T04:21:09.366Z,215
2018-05-06T04:22:08.851Z,220
2018-05-06T04:23:08.847Z,225
2018-05-06T04:24:08.840Z,230
2018-05-06T04:25:08.838Z,240
2018-05-06T04:26:09.087Z,245
2018-05-06T04:27:09.073Z,250
2018-05-06T04:28:09.077Z,260
2018-05-06T04:29:09.318Z,265
2018-05-06T04:30:09.070Z,270
2018-05-06T04:31:08.567Z,275
2018-05-06T04:32:08.801Z,280
2018-05-06T04:33:09.059Z,290
2018-05-06T04:34:09.054Z,300
2018-05-06T04:35:09.051Z,305
2018-05-06T04:36:08.280Z,310
2018-05-06T04:37:08.789Z,315
2018-05-06T04:38:08.869Z,325
2018-05-06T04:39:09.053Z,325
2018-05-06T04:40:09.043Z,330
2018-05-06T04:41:08.769Z,335
2018-05-06T04:42:09.301Z,345
2018-05-06T04:43:09.025Z,355
2018-05-06T04:44:09.275Z,370
2018-05-06T04:45:08.511Z,380
2018-05-06T04:46:08.761Z,380
2018-05-06T04:47:09.278Z,385
2018-05-06T04:48:09.017Z,395
2018-05-06T04:49:09.015Z,405
2018-05-06T04:50:09.268Z,410
2018-05-06T04:51:10.542Z,415
2018-05-06T04:52:09.272Z,425
2018-05-06T04:53:08.498Z,430
2018-05-06T04:54:09.261Z,435
2018-05-06T04:55:09.258Z,450
2018-05-06T04:56:09.009Z,465
2018-05-06T04:57:10.286Z,475
2018-05-06T04:58:09.260Z,480
2018-05-06T04:59:09.034Z,495
2018-05-06T05:00:09.280Z,500
2018-05-06T05:01:09.011Z,510
2018-05-06T05:02:09.015Z,515
2018-05-06T05:03:08.766Z,520
2018-05-06T05:04:08.756Z,525
2018-05-06T05:05:09.026Z,530
2018-05-06T05:06:09.029Z,535
2018-05-06T05:07:09.280Z,530
2018-05-06T05:08:09.283Z,535
2018-05-06T05:09:08.776Z,540
2018-05-06T05:10:08.778Z,545
2018-05-06T05:11:09.286Z,560
2018-05-06T05:12:09.297Z,580
2018-05-06T05:13:09.295Z,580
2018-05-06T05:14:09.047Z,590
2018-05-06T05:15:09.060Z,605
2018-05-06T05:16:08.547Z,605
2018-05-06T05:17:08.808Z,610
2018-05-06T05:18:08.553Z,615
2018-05-06T05:19:09.067Z,620
2018-05-06T05:20:09.071Z,625
2018-05-06T05:21:09.082Z,630
2018-05-06T05:22:09.346Z,645
2018-05-06T05:23:09.088Z,655
2018-05-06T05:24:09.099Z,665
2018-05-06T05:25:08.844Z,670
2018-05-06T05:26:09.104Z,685
2018-05-06T05:27:09.110Z,690
2018-05-06T05:28:09.116Z,695
2018-05-06T05:29:09.130Z,700
2018-05-06T05:30:09.383Z,710
2018-05-06T05:31:08.892Z,715
2018-05-06T05:32:09.399Z,725
2018-05-06T05:33:08.655Z,725
2018-05-06T05:34:09.156Z,740
2018-05-06T05:35:09.167Z,770
2018-05-06T05:36:09.433Z,800
2018-05-06T05:37:09.429Z,815
2018-05-06T05:38:09.191Z,830
2018-05-06T05:39:08.947Z,845
2018-05-06T05:40:09.219Z,865
2018-05-06T05:41:08.946Z,895
2018-05-06T05:42:08.954Z,915
2018-05-06T05:43:09.467Z,930
2018-05-06T05:44:09.477Z,940
2018-05-06T05:45:09.247Z,950
2018-05-06T05:46:09.237Z,950
2018-05-06T05:47:09.245Z,950
2018-05-06T05:48:09.252Z,955
2018-05-06T05:49:09.254Z,960
2018-05-06T05:50:09.597Z,940
2018-05-06T05:51:09.525Z,940
2018-05-06T05:52:09.283Z,930
2018-05-06T05:53:09.035Z,935
2018-05-06T05:54:09.553Z,945
2018-05-06T05:55:09.301Z,965
2018-05-06T05:56:09.054Z,990
2018-05-06T05:57:09.580Z,1020
2018-05-06T05:58:09.336Z,1035
2018-05-06T05:59:09.593Z,1060
2018-05-06T06:00:09.602Z,1085
2018-05-06T06:02:09.382Z,1120
2018-05-06T06:03:09.644Z,1125
2018-05-06T06:04:09.372Z,1125
2018-05-06T06:06:09.646Z,1150
2018-05-06T06:07:09.659Z,1130
2018-05-06T06:08:09.732Z,1185
2018-05-06T06:09:09.668Z,1195
2018-05-06T06:10:09.169Z,1200
2018-05-06T06:11:09.429Z,1205
2018-05-06T06:12:09.701Z,1230
2018-05-06T06:13:09.452Z,1250
2018-05-06T06:14:09.716Z,1255
2018-05-06T06:15:08.964Z,1275
2018-05-06T06:16:09.475Z,1275
2018-05-06T06:17:09.482Z,1265
2018-05-06T06:18:09.504Z,1280
2018-05-06T06:19:09.252Z,1280
2018-05-06T06:20:09.260Z,1300
2018-05-06T06:21:09.520Z,1305
2018-05-06T06:22:09.792Z,1310
2018-05-06T06:23:09.538Z,1320
2018-05-06T06:24:09.800Z,1335
2018-05-06T06:25:09.814Z,1335
2018-05-06T06:26:09.570Z,1345
2018-05-06T06:27:09.603Z,1340
2018-05-06T06:28:09.596Z,1330
2018-05-06T06:29:09.345Z,1325
2018-05-06T06:30:09.366Z,1315
2018-05-06T06:31:09.633Z,1315
2018-05-06T06:32:09.897Z,1320
2018-05-06T06:33:09.796Z,1330
2018-05-06T06:34:09.654Z,1365
2018-05-06T06:35:09.671Z,1405
2018-05-06T06:36:10.010Z,1445
2018-05-06T06:37:09.950Z,1485
2018-05-06T06:38:09.958Z,1520
2018-05-06T06:39:09.713Z,1550
2018-05-06T06:40:09.734Z,1570
2018-05-06T06:41:09.987Z,1570
2018-05-06T06:42:09.747Z,1570
2018-05-06T06:43:09.781Z,1585
2018-05-06T06:44:09.515Z,1580
2018-05-06T06:45:10.136Z,1585
2018-05-06T06:46:09.801Z,1625
2018-05-06T06:47:09.804Z,1625
2018-05-06T06:48:10.205Z,1645
2018-05-06T06:49:09.918Z,1655
2018-05-06T06:50:09.588Z,1660
2018-05-06T06:51:09.857Z,1670
2018-05-06T06:52:09.612Z,1660
2018-05-06T06:53:09.620Z,1665
2018-05-06T06:54:09.900Z,1655
2018-05-06T06:55:09.899Z,1645
2018-05-06T06:56:10.173Z,1660
2018-05-06T06:57:09.927Z,1665
2018-05-06T06:58:09.935Z,1680
2018-05-06T06:59:09.693Z,1715
2018-05-06T07:00:10.233Z,1730
2018-05-06T07:01:09.972Z,1745
2018-05-06T07:02:10.235Z,1775
2018-05-06T07:03:10.247Z,1795
2018-05-06T07:04:09.754Z,1805
2018-05-06T07:05:10.029Z,1775
2018-05-06T07:06:10.299Z,1735
2018-05-06T07:07:09.789Z,1730
2018-05-06T07:08:10.324Z,1760
2018-05-06T07:09:10.067Z,1770
2018-05-06T07:10:10.088Z,1775
2018-05-06T07:11:09.883Z,1800
2018-05-06T07:12:10.372Z,1820
2018-05-06T07:13:10.371Z,1855
2018-05-06T07:14:10.447Z,1880
2018-05-06T07:15:10.400Z,1910
2018-05-06T07:16:10.155Z,1920
2018-05-06T07:17:10.428Z,1940
2018-05-06T07:18:10.187Z,1940
2018-05-06T07:19:10.220Z,1955
2018-05-06T07:20:10.478Z,1960
2018-05-06T07:21:09.975Z,1945
2018-05-06T07:22:10.512Z,1935
2018-05-06T07:23:10.330Z,1905
2018-05-06T07:24:10.289Z,1790
2018-05-06T07:25:10.282Z,1660
2018-05-06T07:26:10.560Z,1600
2018-05-06T07:27:10.566Z,1615
2018-05-06T07:28:10.319Z,1650
2018-05-06T07:29:10.624Z,1700
2018-05-06T07:30:10.683Z,1740
2018-05-06T07:31:10.612Z,1775
2018-05-06T07:32:10.125Z,1810
2018-05-06T07:33:10.657Z,1820
2018-05-06T07:34:10.647Z,1850
2018-05-06T07:35:10.677Z,1885
2018-05-06T07:36:10.679Z,1925
2018-05-06T07:37:10.702Z,1945
2018-05-06T07:38:10.474Z,1975
2018-05-06T07:39:10.213Z,2005
2018-05-06T07:40:10.494Z,2015
2018-05-06T07:41:10.495Z,1995
2018-05-06T07:42:10.521Z,1975
2018-05-06T07:43:10.794Z,1920
2018-05-06T07:44:10.785Z,1870
2018-05-06T07:45:10.307Z,1840
2018-05-06T07:46:10.309Z,1855
2018-05-06T07:47:10.831Z,2170
2018-05-06T07:48:10.865Z,2570
2018-05-06T07:49:11.004Z,2710
2018-05-06T07:50:10.619Z,2750
2018-05-06T07:51:10.387Z,2790
2018-05-06T07:52:10.905Z,2770
2018-05-06T07:53:10.988Z,2815
2018-05-06T07:54:11.019Z,2835
2018-05-06T07:55:10.965Z,2820
2018-05-06T07:56:10.977Z,2810
2018-05-06T07:57:10.724Z,2875
2018-05-06T07:58:10.493Z,2900
2018-05-06T07:59:11.017Z,2815
2018-05-06T08:00:10.784Z,2790
2018-05-06T08:01:10.854Z,2830
2018-05-06T08:02:10.802Z,2835
2018-05-06T08:03:11.067Z,2685
2018-05-06T08:04:11.087Z,2210
2018-05-06T08:05:10.858Z,1955
2018-05-06T08:06:10.612Z,1935
2018-05-06T08:07:10.883Z,1935
2018-05-06T08:08:10.908Z,1905
2018-05-06T08:09:11.050Z,1900
2018-05-06T08:10:10.671Z,1915
2018-05-06T08:11:11.197Z,1920
2018-05-06T08:12:11.222Z,1895
2018-05-06T08:13:10.977Z,1880
2018-05-06T08:14:11.004Z,1870
2018-05-06T08:15:11.276Z,1860
2018-05-06T08:16:11.026Z,1860
2018-05-06T08:17:10.776Z,1860
2018-05-06T08:18:11.047Z,1870
2018-05-06T08:19:11.057Z,1875
2018-05-06T08:20:11.068Z,1875
2018-05-06T08:21:10.833Z,1875
2018-05-06T08:22:10.863Z,1890
2018-05-06T08:23:11.369Z,1895
2018-05-06T08:24:11.380Z,1895
2018-05-06T08:25:11.396Z,1875
2018-05-06T08:26:10.897Z,1870
2018-05-06T08:27:11.420Z,1870
2018-05-06T08:28:11.179Z,1885
2018-05-06T08:29:10.680Z,1915
2018-05-06T08:30:11.461Z,1945
2018-05-06T08:31:11.450Z,1950
2018-05-06T08:32:11.180Z,1970
2018-05-06T08:33:11.277Z,1995
2018-05-06T08:34:11.510Z,2000
2018-05-06T08:35:11.266Z,2005
2018-05-06T08:36:11.287Z,2000
2018-05-06T08:37:11.315Z,1665
2018-05-06T08:38:11.311Z,745
2018-05-06T08:39:10.808Z,250
2018-05-06T08:40:11.328Z,240
2018-05-06T08:41:11.333Z,240
2018-05-06T08:42:11.357Z,235
2018-05-06T08:43:11.108Z,235
2018-05-06T08:44:11.618Z,235
2018-05-06T08:45:11.634Z,235
2018-05-06T08:46:11.651Z,230
2018-05-06T08:47:11.402Z,230
2018-05-06T08:48:11.158Z,230
2018-05-06T08:49:11.167Z,230
2018-05-06T08:50:11.463Z,230
2018-05-06T08:51:11.684Z,235
2018-05-06T08:52:11.692Z,230
2018-05-06T08:53:11.443Z,230
2018-05-06T08:54:11.453Z,230
2018-05-06T08:55:11.457Z,230
2018-05-06T08:56:11.223Z,230
2018-05-06T08:57:11.206Z,230
2018-05-06T08:58:11.725Z,230
2018-05-06T08:59:11.753Z,230
2018-05-06T09:00:11.731Z,230
2018-05-06T09:01:11.222Z,230
2018-05-06T09:02:11.815Z,230
2018-05-06T09:03:11.473Z,230
2018-05-06T09:04:11.486Z,230
2018-05-06T09:05:11.239Z,230
2018-05-06T09:06:11.485Z,230
2018-05-06T09:07:11.497Z,230
2018-05-06T09:08:11.498Z,230
2018-05-06T09:09:11.236Z,225
2018-05-06T09:10:11.483Z,225
2018-05-06T09:11:12.081Z,225
2018-05-06T09:12:11.737Z,225
2018-05-06T09:13:11.502Z,225
2018-05-06T09:14:11.484Z,225
2018-05-06T09:15:11.489Z,225
2018-05-06T09:16:11.736Z,230
2018-05-06T09:17:11.491Z,225
2018-05-06T09:18:11.744Z,225
2018-05-06T09:19:11.753Z,225
2018-05-06T09:20:11.746Z,220
2018-05-06T09:21:11.232Z,220
2018-05-06T09:22:11.488Z,220
2018-05-06T09:23:11.794Z,220
2018-05-06T09:24:11.491Z,220
2018-05-06T09:25:11.477Z,225
2018-05-06T09:26:11.475Z,225
2018-05-06T09:27:11.731Z,225
2018-05-06T09:28:11.480Z,225
2018-05-06T09:29:11.471Z,220
2018-05-06T09:30:11.468Z,220
2018-05-06T09:31:11.482Z,220
2018-05-06T09:32:11.231Z,220
2018-05-06T09:33:10.705Z,220
2018-05-06T09:34:11.222Z,220
2018-05-06T09:35:11.727Z,215
2018-05-06T09:36:11.722Z,215
2018-05-06T09:37:10.974Z,210
2018-05-06T09:38:11.489Z,210
2018-05-06T09:39:10.951Z,210
2018-05-06T09:40:11.723Z,210
2018-05-06T09:41:11.214Z,210
2018-05-06T09:42:11.731Z,215
2018-05-06T09:43:11.462Z,215
2018-05-06T09:44:11.474Z,215
2018-05-06T09:45:11.714Z,215
2018-05-06T09:46:11.200Z,215
2018-05-06T09:47:11.205Z,215
2018-05-06T09:48:11.191Z,215
2018-05-06T09:49:11.698Z,215
2018-05-06T09:50:11.443Z,215
2018-05-06T09:51:11.183Z,215
2018-05-06T09:52:11.192Z,215
2018-05-06T09:53:11.692Z,215
2018-05-06T09:54:10.936Z,215
2018-05-06T09:55:11.176Z,215
2018-05-06T09:56:11.174Z,215
2018-05-06T09:57:11.184Z,215
2018-05-06T09:58:10.928Z,215
2018-05-06T09:59:11.680Z,215
2018-05-06T10:00:11.179Z,220
2018-05-06T10:01:11.943Z,215
2018-05-06T10:02:11.678Z,215
2018-05-06T10:03:11.424Z,215
2018-05-06T10:04:11.164Z,215
2018-05-06T10:05:11.437Z,215
2018-05-06T10:06:11.417Z,215
2018-05-06T10:07:11.668Z,215
2018-05-06T10:08:11.454Z,215
2018-05-06T10:09:11.428Z,215
2018-05-06T10:10:11.422Z,215
2018-05-06T10:11:11.422Z,215
2018-05-06T10:12:11.661Z,210
2018-05-06T10:13:11.667Z,210
2018-05-06T10:14:11.423Z,210
2018-05-06T10:15:11.410Z,210
2018-05-06T10:16:11.682Z,210
2018-05-06T10:17:11.656Z,215
2018-05-06T10:18:11.649Z,215
2018-05-06T10:19:11.656Z,210
2018-05-06T10:20:11.675Z,210
2018-05-06T10:21:11.653Z,215
2018-05-06T10:22:11.410Z,215
2018-05-06T10:23:11.131Z,210
2018-05-06T10:24:11.132Z,215
2018-05-06T10:25:11.132Z,210
2018-05-06T10:26:11.659Z,215
2018-05-06T10:27:11.388Z,215
2018-05-06T10:28:11.893Z,210
2018-05-06T10:29:11.398Z,210
2018-05-06T10:30:11.125Z,210
2018-05-06T10:31:11.121Z,205
2018-05-06T10:32:10.880Z,205
2018-05-06T10:33:11.121Z,205
2018-05-06T10:34:11.367Z,205
2018-05-06T10:35:11.368Z,210
2018-05-06T10:36:11.380Z,205
2018-05-06T10:37:11.372Z,200
2018-05-06T10:38:11.362Z,200
2018-05-06T10:39:11.357Z,200
2018-05-06T10:40:11.354Z,200
2018-05-06T10:41:11.624Z,200
2018-05-06T10:42:11.356Z,200
2018-05-06T10:43:11.101Z,200
2018-05-06T10:44:12.142Z,200
2018-05-06T10:45:11.427Z,200
2018-05-06T10:46:11.446Z,200
2018-05-06T10:47:11.735Z,200
2018-05-06T10:48:11.364Z,200
2018-05-06T10:49:11.083Z,200
2018-05-06T10:50:11.033Z,200
2018-05-06T10:51:11.350Z,200
2018-05-06T10:52:10.838Z,200
2018-05-06T10:53:11.082Z,200
2018-05-06T10:54:11.340Z,200
2018-05-06T10:55:11.338Z,200
2018-05-06T10:56:11.600Z,200
2018-05-06T10:57:11.332Z,200
2018-05-06T10:58:10.832Z,195
2018-05-06T10:59:11.575Z,195
2018-05-06T11:00:10.904Z,195
2018-05-06T11:01:11.326Z,195
2018-05-06T11:02:11.330Z,195
2018-05-06T11:03:11.574Z,195
2018-05-06T11:04:11.576Z,195
2018-05-06T11:05:11.564Z,195
2018-05-06T11:06:11.085Z,190
2018-05-06T11:07:11.311Z,190
2018-05-06T11:08:10.805Z,190
2018-05-06T11:09:11.068Z,190
2018-05-06T11:10:10.965Z,190
2018-05-06T11:11:11.311Z,190
2018-05-06T11:12:11.301Z,190
2018-05-06T11:13:11.064Z,190
2018-05-06T11:14:11.061Z,190
2018-05-06T11:15:11.554Z,190
2018-05-06T11:16:11.046Z,190
2018-05-06T11:17:11.553Z,195
2018-05-06T11:18:11.049Z,190
2018-05-06T11:19:11.287Z,195
2018-05-06T11:20:11.308Z,190
2018-05-06T11:21:10.527Z,185
2018-05-06T11:22:11.311Z,185
2018-05-06T11:23:11.377Z,185
2018-05-06T11:24:11.031Z,185
2018-05-06T11:25:11.276Z,185
2018-05-06T11:26:11.050Z,185
2018-05-06T11:27:11.283Z,185
2018-05-06T11:28:11.271Z,185
2018-05-06T11:29:11.295Z,185
2018-05-06T11:30:11.030Z,180
2018-05-06T11:31:11.263Z,180
2018-05-06T11:32:11.532Z,180
2018-05-06T11:33:11.264Z,180
2018-05-06T11:34:11.283Z,180
2018-05-06T11:35:11.024Z,180
2018-05-06T11:36:11.012Z,185
2018-05-06T11:37:11.278Z,185
2018-05-06T11:38:11.264Z,185
2018-05-06T11:39:11.937Z,185
2018-05-06T11:40:11.266Z,180
2018-05-06T11:41:11.540Z,180
2018-05-06T11:42:11.004Z,180
2018-05-06T11:43:11.516Z,180
2018-05-06T11:44:10.996Z,180
2018-05-06T11:45:10.992Z,180
2018-05-06T11:46:10.999Z,180
2018-05-06T11:47:10.989Z,180
2018-05-06T11:48:11.588Z,180
2018-05-06T11:49:11.001Z,180
2018-05-06T11:50:11.240Z,180
2018-05-06T11:51:11.502Z,180
2018-05-06T11:52:10.985Z,180
2018-05-06T11:53:11.491Z,180
2018-05-06T11:54:10.974Z,180
2018-05-06T11:55:11.490Z,175
2018-05-06T11:56:11.231Z,175
2018-05-06T11:57:11.519Z,175
2018-05-06T11:58:11.223Z,175
2018-05-06T11:59:11.509Z,175
2018-05-06T12:00:10.970Z,175
2018-05-06T12:01:11.223Z,175
2018-05-06T12:02:10.927Z,175
2018-05-06T12:03:11.228Z,175
2018-05-06T12:04:11.232Z,175
2018-05-06T12:05:10.957Z,175
2018-05-06T12:06:10.969Z,175
2018-05-06T12:07:10.953Z,180
2018-05-06T12:08:11.226Z,180
2018-05-06T12:09:11.205Z,180
2018-05-06T12:10:11.080Z,180
2018-05-06T12:11:10.950Z,180
2018-05-06T12:12:11.769Z,175
2018-05-06T12:13:11.451Z,175
2018-05-06T12:14:10.940Z,175
2018-05-06T12:15:11.448Z,175
2018-05-06T12:16:11.654Z,175
2018-05-06T12:17:10.939Z,175
2018-05-06T12:18:11.187Z,175
2018-05-06T12:19:11.189Z,175
2018-05-06T12:20:11.437Z,175
2018-05-06T12:21:11.199Z,175
2018-05-06T12:22:10.420Z,175
2018-05-06T12:23:10.675Z,175
2018-05-06T12:24:11.384Z,175
2018-05-06T12:25:10.680Z,175
2018-05-06T12:26:11.190Z,175
2018-05-06T12:27:11.176Z,180
2018-05-06T12:28:11.433Z,180
2018-05-06T12:29:10.914Z,180
2018-05-06T12:30:10.924Z,175
2018-05-06T12:31:11.439Z,175
2018-05-06T12:32:10.660Z,175
2018-05-06T12:33:11.164Z,175
2018-05-06T12:34:10.923Z,175
2018-05-06T12:35:10.677Z,175
2018-05-06T12:36:11.165Z,175
2018-05-06T12:37:11.161Z,175
2018-05-06T12:38:11.171Z,175
2018-05-06T12:39:10.906Z,170
2018-05-06T12:40:11.161Z,170
2018-05-06T12:41:11.155Z,170
2018-05-06T12:42:11.414Z,170
2018-05-06T12:43:11.520Z,170
2018-05-06T12:44:11.166Z,170
2018-05-06T12:45:11.571Z,170
2018-05-06T12:46:11.426Z,170
2018-05-06T12:47:11.403Z,170
2018-05-06T12:48:11.142Z,170
2018-05-06T12:49:10.643Z,170
2018-05-06T12:50:10.633Z,170
2018-05-06T12:51:11.156Z,170
2018-05-06T12:52:11.395Z,170
2018-05-06T12:53:11.389Z,170
2018-05-06T12:54:10.638Z,170
2018-05-06T12:55:11.151Z,170
2018-05-06T12:56:11.398Z,170
2018-05-06T12:57:11.139Z,170
2018-05-06T12:58:11.138Z,170
2018-05-06T12:59:11.135Z,170
2018-05-06T13:00:11.142Z,170
2018-05-06T13:01:10.641Z,170
2018-05-06T13:02:10.625Z,165
2018-05-06T13:03:11.137Z,165
2018-05-06T13:04:10.885Z,165
2018-05-06T13:05:10.617Z,165
2018-05-06T13:06:10.864Z,170
2018-05-06T13:07:11.374Z,170
2018-05-06T13:08:11.376Z,170
2018-05-06T13:09:10.861Z,170
2018-05-06T13:10:11.116Z,170
2018-05-06T13:11:11.390Z,170
2018-05-06T13:12:10.873Z,170
2018-05-06T13:13:10.856Z,170
2018-05-06T13:14:11.367Z,165
2018-05-06T13:15:10.867Z,165
2018-05-06T13:16:11.127Z,165
2018-05-06T13:17:11.364Z,165
2018-05-06T13:18:11.111Z,165
2018-05-06T13:19:10.881Z,165
2018-05-06T13:20:11.369Z,165
2018-05-06T13:21:10.848Z,165
2018-05-06T13:22:11.361Z,165
2018-05-06T13:23:10.852Z,160
2018-05-06T13:24:11.312Z,165
2018-05-06T13:25:11.101Z,165
2018-05-06T13:26:11.102Z,165
2018-05-06T13:27:10.836Z,170
2018-05-06T13:28:11.126Z,165
2018-05-06T13:29:10.864Z,165
2018-05-06T13:30:10.867Z,165
2018-05-06T13:31:11.095Z,165
2018-05-06T13:32:10.834Z,165
2018-05-06T13:33:11.108Z,165
2018-05-06T13:34:11.354Z,165
2018-05-06T13:35:11.083Z,165
2018-05-06T13:36:11.344Z,160
2018-05-06T13:37:10.573Z,160
2018-05-06T13:38:10.576Z,160
2018-05-06T13:39:11.088Z,160
2018-05-06T13:40:11.349Z,160
2018-05-06T13:41:11.077Z,160
2018-05-06T13:42:10.826Z,160
2018-05-06T13:43:10.830Z,160
2018-05-06T13:44:10.963Z,160
2018-05-06T13:45:11.342Z,160
2018-05-06T13:46:11.105Z,160
2018-05-06T13:47:11.071Z,160
2018-05-06T13:48:11.066Z,160
2018-05-06T13:49:11.072Z,160
2018-05-06T13:50:11.940Z,160
2018-05-06T13:51:11.343Z,160
2018-05-06T13:52:11.077Z,160
2018-05-06T13:53:11.315Z,160
2018-05-06T13:54:10.838Z,160
2018-05-06T13:55:10.804Z,160
2018-05-06T13:56:10.808Z,160
2018-05-06T13:57:11.059Z,160